sensor_id;sensor_type;location;lat;lon;timestamp;temperature;humidity
65207;SHT31;58477;48.072;11.970;2022-12-07T00:01:08;2.31;92.38
65207;SHT31;58477;48.072;11.970;2022-12-07T00:03:36;2.15;92.97
65207;SHT31;58477;48.072;11.970;2022-12-07T00:06:03;2.15;93.00
65207;SHT31;58477;48.072;11.970;2022-12-07T00:08:29;2.17;93.12
65207;SHT31;58477;48.072;11.970;2022-12-07T00:10:55;2.22;92.69
65207;SHT31;58477;48.072;11.970;2022-12-07T00:13:20;2.11;92.75
65207;SHT31;58477;48.072;11.970;2022-12-07T00:15:46;2.22;92.36
65207;SHT31;58477;48.072;11.970;2022-12-07T00:18:11;2.26;92.55
65207;SHT31;58477;48.072;11.970;2022-12-07T00:20:36;2.19;92.48
65207;SHT31;58477;48.072;11.970;2022-12-07T00:23:02;2.19;93.00
65207;SHT31;58477;48.072;11.970;2022-12-07T00:25:28;2.25;92.19
65207;SHT31;58477;48.072;11.970;2022-12-07T00:27:53;2.22;92.38
65207;SHT31;58477;48.072;11.970;2022-12-07T00:30:21;2.28;92.50
65207;SHT31;58477;48.072;11.970;2022-12-07T00:32:47;2.24;92.43
65207;SHT31;58477;48.072;11.970;2022-12-07T00:35:13;2.19;92.49
65207;SHT31;58477;48.072;11.970;2022-12-07T00:37:38;2.29;91.90
65207;SHT31;58477;48.072;11.970;2022-12-07T00:40:05;2.26;92.32
65207;SHT31;58477;48.072;11.970;2022-12-07T00:42:30;2.15;92.77
65207;SHT31;58477;48.072;11.970;2022-12-07T00:44:56;2.17;92.71
65207;SHT31;58477;48.072;11.970;2022-12-07T00:47:21;2.14;93.09
65207;SHT31;58477;48.072;11.970;2022-12-07T00:49:46;2.07;92.76
65207;SHT31;58477;48.072;11.970;2022-12-07T00:52:12;2.15;93.11
65207;SHT31;58477;48.072;11.970;2022-12-07T00:54:37;2.14;93.19
65207;SHT31;58477;48.072;11.970;2022-12-07T00:57:03;2.11;93.47
65207;SHT31;58477;48.072;11.970;2022-12-07T00:59:28;2.22;93.10
65207;SHT31;58477;48.072;11.970;2022-12-07T01:01:53;2.11;93.04
65207;SHT31;58477;48.072;11.970;2022-12-07T01:04:19;2.08;93.18
65207;SHT31;58477;48.072;11.970;2022-12-07T01:06:44;2.24;93.24
65207;SHT31;58477;48.072;11.970;2022-12-07T01:09:10;2.15;93.09
65207;SHT31;58477;48.072;11.970;2022-12-07T01:11:35;2.17;93.46
65207;SHT31;58477;48.072;11.970;2022-12-07T01:14:00;2.18;93.36
65207;SHT31;58477;48.072;11.970;2022-12-07T01:16:28;2.14;93.19
65207;SHT31;58477;48.072;11.970;2022-12-07T01:18:55;2.15;93.22
65207;SHT31;58477;48.072;11.970;2022-12-07T01:21:29;2.09;93.56
65207;SHT31;58477;48.072;11.970;2022-12-07T01:23:57;2.19;92.99
65207;SHT31;58477;48.072;11.970;2022-12-07T01:26:24;2.05;93.37
65207;SHT31;58477;48.072;11.970;2022-12-07T01:28:51;1.98;93.42
65207;SHT31;58477;48.072;11.970;2022-12-07T01:31:19;2.08;93.56
65207;SHT31;58477;48.072;11.970;2022-12-07T01:33:48;2.09;93.38
65207;SHT31;58477;48.072;11.970;2022-12-07T01:36:18;2.09;93.53
65207;SHT31;58477;48.072;11.970;2022-12-07T01:38:45;2.04;93.41
65207;SHT31;58477;48.072;11.970;2022-12-07T01:41:11;2.05;93.60
65207;SHT31;58477;48.072;11.970;2022-12-07T01:43:36;1.98;93.85
65207;SHT31;58477;48.072;11.970;2022-12-07T01:46:03;2.09;93.76
65207;SHT31;58477;48.072;11.970;2022-12-07T01:48:40;2.04;93.58
65207;SHT31;58477;48.072;11.970;2022-12-07T01:51:11;1.99;93.64
65207;SHT31;58477;48.072;11.970;2022-12-07T01:53:42;1.89;93.98
65207;SHT31;58477;48.072;11.970;2022-12-07T01:56:11;1.97;93.61
65207;SHT31;58477;48.072;11.970;2022-12-07T01:58:37;2.01;93.49
65207;SHT31;58477;48.072;11.970;2022-12-07T02:01:03;2.01;93.52
65207;SHT31;58477;48.072;11.970;2022-12-07T02:03:37;1.99;93.43
65207;SHT31;58477;48.072;11.970;2022-12-07T02:06:04;1.94;93.81
65207;SHT31;58477;48.072;11.970;2022-12-07T02:08:30;1.94;93.82
65207;SHT31;58477;48.072;11.970;2022-12-07T02:10:56;1.98;93.35
65207;SHT31;58477;48.072;11.970;2022-12-07T02:13:30;1.91;93.49
65207;SHT31;58477;48.072;11.970;2022-12-07T02:16:40;1.99;93.29
65207;SHT31;58477;48.072;11.970;2022-12-07T02:24:35;1.91;94.10
65207;SHT31;58477;48.072;11.970;2022-12-07T02:30:17;1.95;93.83
65207;SHT31;58477;48.072;11.970;2022-12-07T02:35:30;1.97;93.50
65207;SHT31;58477;48.072;11.970;2022-12-07T02:38:10;1.97;93.65
65207;SHT31;58477;48.072;11.970;2022-12-07T02:41:09;1.89;94.00
65207;SHT31;58477;48.072;11.970;2022-12-07T02:43:40;1.84;94.06
65207;SHT31;58477;48.072;11.970;2022-12-07T02:46:10;1.84;93.96
65207;SHT31;58477;48.072;11.970;2022-12-07T02:48:38;1.85;93.59
65207;SHT31;58477;48.072;11.970;2022-12-07T02:51:04;1.91;93.38
65207;SHT31;58477;48.072;11.970;2022-12-07T02:53:41;1.89;93.54
65207;SHT31;58477;48.072;11.970;2022-12-07T03:07:38;1.82;93.44
65207;SHT31;58477;48.072;11.970;2022-12-07T03:15:32;1.87;93.13
65207;SHT31;58477;48.072;11.970;2022-12-07T03:17:59;1.88;93.38
65207;SHT31;58477;48.072;11.970;2022-12-07T03:20:27;1.85;93.61
65207;SHT31;58477;48.072;11.970;2022-12-07T03:22:54;1.88;93.38
65207;SHT31;58477;48.072;11.970;2022-12-07T03:25:20;1.78;93.69
65207;SHT31;58477;48.072;11.970;2022-12-07T03:30:19;1.73;93.66
65207;SHT31;58477;48.072;11.970;2022-12-07T03:35:37;1.89;93.34
65207;SHT31;58477;48.072;11.970;2022-12-07T03:40:44;1.84;93.51
65207;SHT31;58477;48.072;11.970;2022-12-07T03:43:15;1.81;93.66
65207;SHT31;58477;48.072;11.970;2022-12-07T03:45:44;1.82;93.87
65207;SHT31;58477;48.072;11.970;2022-12-07T03:51:51;1.81;93.54
65207;SHT31;58477;48.072;11.970;2022-12-07T03:54:25;1.74;93.78
65207;SHT31;58477;48.072;11.970;2022-12-07T03:56:52;1.77;94.02
65207;SHT31;58477;48.072;11.970;2022-12-07T03:59:19;1.85;93.98
65207;SHT31;58477;48.072;11.970;2022-12-07T04:01:52;1.74;93.84
65207;SHT31;58477;48.072;11.970;2022-12-07T04:04:18;1.79;93.91
65207;SHT31;58477;48.072;11.970;2022-12-07T04:06:44;1.82;93.89
65207;SHT31;58477;48.072;11.970;2022-12-07T04:09:09;1.75;93.92
65207;SHT31;58477;48.072;11.970;2022-12-07T04:11:34;1.79;93.86
65207;SHT31;58477;48.072;11.970;2022-12-07T04:14:00;1.77;93.84
65207;SHT31;58477;48.072;11.970;2022-12-07T04:16:54;1.68;94.19
65207;SHT31;58477;48.072;11.970;2022-12-07T04:19:28;1.77;93.88
65207;SHT31;58477;48.072;11.970;2022-12-07T04:21:55;1.77;94.38
65207;SHT31;58477;48.072;11.970;2022-12-07T04:24:21;1.78;93.94
65207;SHT31;58477;48.072;11.970;2022-12-07T04:26:47;1.77;94.16
65207;SHT31;58477;48.072;11.970;2022-12-07T04:29:13;1.75;93.81
65207;SHT31;58477;48.072;11.970;2022-12-07T04:31:39;1.67;94.20
65207;SHT31;58477;48.072;11.970;2022-12-07T04:34:06;1.67;94.19
65207;SHT31;58477;48.072;11.970;2022-12-07T04:36:32;1.67;94.33
65207;SHT31;58477;48.072;11.970;2022-12-07T04:38:57;1.64;94.77
65207;SHT31;58477;48.072;11.970;2022-12-07T04:41:23;1.58;94.83
65207;SHT31;58477;48.072;11.970;2022-12-07T04:44:01;1.57;94.93
65207;SHT31;58477;48.072;11.970;2022-12-07T04:46:28;1.73;94.76
65207;SHT31;58477;48.072;11.970;2022-12-07T04:48:54;1.73;94.46
65207;SHT31;58477;48.072;11.970;2022-12-07T04:51:22;1.77;94.52
65207;SHT31;58477;48.072;11.970;2022-12-07T04:53:48;1.70;94.44
65207;SHT31;58477;48.072;11.970;2022-12-07T04:56:15;1.68;94.62
65207;SHT31;58477;48.072;11.970;2022-12-07T04:58:42;1.57;94.67
65207;SHT31;58477;48.072;11.970;2022-12-07T05:01:08;1.68;94.81
65207;SHT31;58477;48.072;11.970;2022-12-07T05:03:35;1.65;94.56
65207;SHT31;58477;48.072;11.970;2022-12-07T05:06:00;1.67;94.43
65207;SHT31;58477;48.072;11.970;2022-12-07T05:08:26;1.74;94.48
65207;SHT31;58477;48.072;11.970;2022-12-07T05:10:52;1.70;94.67
65207;SHT31;58477;48.072;11.970;2022-12-07T05:13:17;1.74;94.18
65207;SHT31;58477;48.072;11.970;2022-12-07T05:15:43;1.70;94.14
65207;SHT31;58477;48.072;11.970;2022-12-07T05:18:10;1.74;94.34
65207;SHT31;58477;48.072;11.970;2022-12-07T05:20:41;1.77;94.08
65207;SHT31;58477;48.072;11.970;2022-12-07T05:23:07;1.70;94.12
65207;SHT31;58477;48.072;11.970;2022-12-07T05:25:33;1.73;94.21
65207;SHT31;58477;48.072;11.970;2022-12-07T05:27:58;1.73;94.22
65207;SHT31;58477;48.072;11.970;2022-12-07T05:30:24;1.71;94.28
65207;SHT31;58477;48.072;11.970;2022-12-07T05:32:51;1.67;94.53
65207;SHT31;58477;48.072;11.970;2022-12-07T05:35:17;1.71;94.70
65207;SHT31;58477;48.072;11.970;2022-12-07T05:37:43;1.67;95.08
65207;SHT31;58477;48.072;11.970;2022-12-07T05:40:09;1.70;94.69
65207;SHT31;58477;48.072;11.970;2022-12-07T05:42:35;1.68;95.05
65207;SHT31;58477;48.072;11.970;2022-12-07T05:45:00;1.73;94.36
65207;SHT31;58477;48.072;11.970;2022-12-07T05:47:26;1.58;94.80
65207;SHT31;58477;48.072;11.970;2022-12-07T05:49:51;1.65;95.00
65207;SHT31;58477;48.072;11.970;2022-12-07T05:52:17;1.63;95.17
65207;SHT31;58477;48.072;11.970;2022-12-07T05:54:42;1.65;95.13
65207;SHT31;58477;48.072;11.970;2022-12-07T05:57:08;1.63;95.11
65207;SHT31;58477;48.072;11.970;2022-12-07T05:59:34;1.58;95.18
65207;SHT31;58477;48.072;11.970;2022-12-07T06:02:05;1.50;95.33
65207;SHT31;58477;48.072;11.970;2022-12-07T06:04:39;1.48;95.73
65207;SHT31;58477;48.072;11.970;2022-12-07T06:07:05;1.51;95.24
65207;SHT31;58477;48.072;11.970;2022-12-07T06:09:32;1.44;95.55
65207;SHT31;58477;48.072;11.970;2022-12-07T06:11:58;1.30;95.86
65207;SHT31;58477;48.072;11.970;2022-12-07T06:14:42;1.30;96.19
65207;SHT31;58477;48.072;11.970;2022-12-07T06:17:08;1.24;96.38
65207;SHT31;58477;48.072;11.970;2022-12-07T06:19:34;1.27;96.50
65207;SHT31;58477;48.072;11.970;2022-12-07T06:22:00;1.29;96.34
65207;SHT31;58477;48.072;11.970;2022-12-07T06:24:26;1.27;96.71
65207;SHT31;58477;48.072;11.970;2022-12-07T06:26:51;1.30;96.78
65207;SHT31;58477;48.072;11.970;2022-12-07T06:29:18;1.33;96.59
65207;SHT31;58477;48.072;11.970;2022-12-07T06:31:44;1.37;96.24
65207;SHT31;58477;48.072;11.970;2022-12-07T06:34:15;1.34;96.40
65207;SHT31;58477;48.072;11.970;2022-12-07T06:36:40;1.32;96.35
65207;SHT31;58477;48.072;11.970;2022-12-07T06:39:06;1.34;96.60
65207;SHT31;58477;48.072;11.970;2022-12-07T06:41:35;1.43;96.56
65207;SHT31;58477;48.072;11.970;2022-12-07T06:44:01;1.44;96.32
65207;SHT31;58477;48.072;11.970;2022-12-07T06:46:27;1.51;96.10
65207;SHT31;58477;48.072;11.970;2022-12-07T06:48:52;1.50;96.16
65207;SHT31;58477;48.072;11.970;2022-12-07T06:51:18;1.40;96.21
65207;SHT31;58477;48.072;11.970;2022-12-07T06:53:44;1.40;96.33
65207;SHT31;58477;48.072;11.970;2022-12-07T06:56:09;1.42;96.37
65207;SHT31;58477;48.072;11.970;2022-12-07T06:58:36;1.40;96.58
65207;SHT31;58477;48.072;11.970;2022-12-07T07:01:02;1.47;96.26
65207;SHT31;58477;48.072;11.970;2022-12-07T07:03:28;1.40;96.56
65207;SHT31;58477;48.072;11.970;2022-12-07T07:05:53;1.48;96.57
65207;SHT31;58477;48.072;11.970;2022-12-07T07:08:19;1.43;96.44
65207;SHT31;58477;48.072;11.970;2022-12-07T07:10:44;1.50;96.73
65207;SHT31;58477;48.072;11.970;2022-12-07T07:13:10;1.51;96.53
65207;SHT31;58477;48.072;11.970;2022-12-07T07:15:37;1.46;96.21
65207;SHT31;58477;48.072;11.970;2022-12-07T07:18:03;1.50;96.43
65207;SHT31;58477;48.072;11.970;2022-12-07T07:20:29;1.54;96.53
65207;SHT31;58477;48.072;11.970;2022-12-07T07:22:55;1.54;96.02
65207;SHT31;58477;48.072;11.970;2022-12-07T07:25:21;1.54;96.15
65207;SHT31;58477;48.072;11.970;2022-12-07T07:27:46;1.60;96.12
65207;SHT31;58477;48.072;11.970;2022-12-07T07:30:12;1.65;95.36
65207;SHT31;58477;48.072;11.970;2022-12-07T07:32:37;1.58;95.84
65207;SHT31;58477;48.072;11.970;2022-12-07T07:35:03;1.67;95.94
65207;SHT31;58477;48.072;11.970;2022-12-07T07:37:29;1.71;95.41
65207;SHT31;58477;48.072;11.970;2022-12-07T07:39:54;1.73;95.38
65207;SHT31;58477;48.072;11.970;2022-12-07T07:42:20;1.63;95.28
65207;SHT31;58477;48.072;11.970;2022-12-07T07:44:45;1.67;95.57
65207;SHT31;58477;48.072;11.970;2022-12-07T07:47:10;1.68;95.57
65207;SHT31;58477;48.072;11.970;2022-12-07T07:49:36;1.67;95.37
65207;SHT31;58477;48.072;11.970;2022-12-07T07:52:02;1.65;95.79
65207;SHT31;58477;48.072;11.970;2022-12-07T07:54:27;1.64;95.76
65207;SHT31;58477;48.072;11.970;2022-12-07T07:56:53;1.73;95.89
65207;SHT31;58477;48.072;11.970;2022-12-07T07:59:18;1.75;95.98
65207;SHT31;58477;48.072;11.970;2022-12-07T08:01:44;1.70;95.63
65207;SHT31;58477;48.072;11.970;2022-12-07T08:04:10;1.79;95.46
65207;SHT31;58477;48.072;11.970;2022-12-07T08:06:35;1.77;95.88
65207;SHT31;58477;48.072;11.970;2022-12-07T08:09:00;1.89;95.47
65207;SHT31;58477;48.072;11.970;2022-12-07T08:11:26;2.01;95.14
65207;SHT31;58477;48.072;11.970;2022-12-07T08:13:51;2.02;95.05
65207;SHT31;58477;48.072;11.970;2022-12-07T08:16:17;2.02;94.95
65207;SHT31;58477;48.072;11.970;2022-12-07T08:18:43;2.12;94.94
65207;SHT31;58477;48.072;11.970;2022-12-07T08:21:13;2.08;94.81
65207;SHT31;58477;48.072;11.970;2022-12-07T08:23:39;2.07;94.99
65207;SHT31;58477;48.072;11.970;2022-12-07T08:26:07;2.15;94.74
65207;SHT31;58477;48.072;11.970;2022-12-07T08:28:33;2.08;93.90
65207;SHT31;58477;48.072;11.970;2022-12-07T08:31:03;2.12;94.30
65207;SHT31;58477;48.072;11.970;2022-12-07T08:33:30;2.09;94.28
65207;SHT31;58477;48.072;11.970;2022-12-07T08:36:06;2.26;94.03
65207;SHT31;58477;48.072;11.970;2022-12-07T08:38:34;2.28;93.57
65207;SHT31;58477;48.072;11.970;2022-12-07T08:41:00;2.24;93.60
65207;SHT31;58477;48.072;11.970;2022-12-07T08:43:26;2.17;93.54
65207;SHT31;58477;48.072;11.970;2022-12-07T08:46:11;2.07;93.89
65207;SHT31;58477;48.072;11.970;2022-12-07T08:48:43;2.22;94.49
65207;SHT31;58477;48.072;11.970;2022-12-07T08:51:09;2.21;93.81
65207;SHT31;58477;48.072;11.970;2022-12-07T08:53:37;2.11;93.30
65207;SHT31;58477;48.072;11.970;2022-12-07T08:56:04;1.99;93.24
65207;SHT31;58477;48.072;11.970;2022-12-07T08:58:31;2.05;93.42
65207;SHT31;58477;48.072;11.970;2022-12-07T09:00:56;2.02;93.35
65207;SHT31;58477;48.072;11.970;2022-12-07T09:03:22;2.04;93.20
65207;SHT31;58477;48.072;11.970;2022-12-07T09:05:47;2.04;92.69
65207;SHT31;58477;48.072;11.970;2022-12-07T09:08:13;2.08;92.83
65207;SHT31;58477;48.072;11.970;2022-12-07T09:10:38;2.09;92.82
65207;SHT31;58477;48.072;11.970;2022-12-07T09:13:04;2.15;92.25
65207;SHT31;58477;48.072;11.970;2022-12-07T09:15:30;2.18;91.63
65207;SHT31;58477;48.072;11.970;2022-12-07T09:17:56;2.22;92.16
65207;SHT31;58477;48.072;11.970;2022-12-07T09:20:22;2.35;91.46
65207;SHT31;58477;48.072;11.970;2022-12-07T09:22:48;2.41;91.00
65207;SHT31;58477;48.072;11.970;2022-12-07T09:25:13;2.42;90.82
65207;SHT31;58477;48.072;11.970;2022-12-07T09:27:39;2.49;91.39
65207;SHT31;58477;48.072;11.970;2022-12-07T09:30:05;2.53;91.14
65207;SHT31;58477;48.072;11.970;2022-12-07T09:32:31;2.69;90.35
65207;SHT31;58477;48.072;11.970;2022-12-07T09:34:56;2.83;89.82
65207;SHT31;58477;48.072;11.970;2022-12-07T09:37:22;2.90;88.87
65207;SHT31;58477;48.072;11.970;2022-12-07T09:39:47;3.04;89.12
65207;SHT31;58477;48.072;11.970;2022-12-07T09:42:32;3.18;88.67
65207;SHT31;58477;48.072;11.970;2022-12-07T09:44:59;3.32;87.74
65207;SHT31;58477;48.072;11.970;2022-12-07T09:47:25;3.24;86.43
65207;SHT31;58477;48.072;11.970;2022-12-07T09:49:53;3.18;87.11
65207;SHT31;58477;48.072;11.970;2022-12-07T09:52:25;3.24;87.87
65207;SHT31;58477;48.072;11.970;2022-12-07T09:54:51;3.14;86.45
65207;SHT31;58477;48.072;11.970;2022-12-07T09:57:19;3.24;87.12
65207;SHT31;58477;48.072;11.970;2022-12-07T09:59:46;3.32;87.60
65207;SHT31;58477;48.072;11.970;2022-12-07T10:02:34;3.26;86.97
65207;SHT31;58477;48.072;11.970;2022-12-07T10:04:59;3.38;86.78
65207;SHT31;58477;48.072;11.970;2022-12-07T10:07:25;3.57;86.67
65207;SHT31;58477;48.072;11.970;2022-12-07T10:09:51;3.54;85.36
65207;SHT31;58477;48.072;11.970;2022-12-07T10:12:16;3.54;85.39
65207;SHT31;58477;48.072;11.970;2022-12-07T10:14:59;3.58;85.98
65207;SHT31;58477;48.072;11.970;2022-12-07T10:17:34;3.52;85.38
65207;SHT31;58477;48.072;11.970;2022-12-07T10:20:24;3.44;84.93
65207;SHT31;58477;48.072;11.970;2022-12-07T10:25:21;3.52;84.92
65207;SHT31;58477;48.072;11.970;2022-12-07T10:28:17;3.54;85.53
65207;SHT31;58477;48.072;11.970;2022-12-07T10:30:57;3.54;85.63
65207;SHT31;58477;48.072;11.970;2022-12-07T10:33:59;3.54;84.34
65207;SHT31;58477;48.072;11.970;2022-12-07T10:41:53;3.71;84.76
65207;SHT31;58477;48.072;11.970;2022-12-07T10:44:24;3.58;85.34
65207;SHT31;58477;48.072;11.970;2022-12-07T10:47:16;3.82;85.54
65207;SHT31;58477;48.072;11.970;2022-12-07T10:49:57;3.75;84.35
65207;SHT31;58477;48.072;11.970;2022-12-07T11:04:35;3.77;84.26
65207;SHT31;58477;48.072;11.970;2022-12-07T11:07:11;3.85;83.61
65207;SHT31;58477;48.072;11.970;2022-12-07T11:09:53;3.96;84.30
65207;SHT31;58477;48.072;11.970;2022-12-07T11:12:39;3.93;84.36
65207;SHT31;58477;48.072;11.970;2022-12-07T11:37:41;3.86;84.41
65207;SHT31;58477;48.072;11.970;2022-12-07T11:40:20;3.96;83.47
65207;SHT31;58477;48.072;11.970;2022-12-07T11:42:54;4.07;84.25
65207;SHT31;58477;48.072;11.970;2022-12-07T11:45:26;4.16;83.82
65207;SHT31;58477;48.072;11.970;2022-12-07T11:48:03;3.85;82.42
65207;SHT31;58477;48.072;11.970;2022-12-07T11:50:37;3.88;83.15
65207;SHT31;58477;48.072;11.970;2022-12-07T11:53:15;3.95;82.86
65207;SHT31;58477;48.072;11.970;2022-12-07T11:56:01;3.85;83.20
65207;SHT31;58477;48.072;11.970;2022-12-07T12:01:48;3.85;83.84
65207;SHT31;58477;48.072;11.970;2022-12-07T12:06:36;3.65;82.03
65207;SHT31;58477;48.072;11.970;2022-12-07T12:09:34;3.71;81.65
65207;SHT31;58477;48.072;11.970;2022-12-07T12:14:51;3.32;82.79
65207;SHT31;58477;48.072;11.970;2022-12-07T12:22:50;3.38;83.41
65207;SHT31;58477;48.072;11.970;2022-12-07T12:25:42;3.34;82.81
65207;SHT31;58477;48.072;11.970;2022-12-07T12:28:20;3.31;83.37
65207;SHT31;58477;48.072;11.970;2022-12-07T12:31:04;3.37;83.48
65207;SHT31;58477;48.072;11.970;2022-12-07T12:33:31;3.37;84.02
65207;SHT31;58477;48.072;11.970;2022-12-07T12:46:54;3.37;84.45
65207;SHT31;58477;48.072;11.970;2022-12-07T12:54:35;3.32;84.82
65207;SHT31;58477;48.072;11.970;2022-12-07T12:57:09;3.30;84.72
65207;SHT31;58477;48.072;11.970;2022-12-07T13:02:22;3.13;84.57
65207;SHT31;58477;48.072;11.970;2022-12-07T13:10:45;3.51;85.66
65207;SHT31;58477;48.072;11.970;2022-12-07T13:15:47;3.34;84.98
65207;SHT31;58477;48.072;11.970;2022-12-07T13:26:22;3.38;85.11
65207;SHT31;58477;48.072;11.970;2022-12-07T13:34:30;3.51;84.76
65207;SHT31;58477;48.072;11.970;2022-12-07T13:36:56;3.42;84.46
65207;SHT31;58477;48.072;11.970;2022-12-07T13:39:24;3.40;84.60
65207;SHT31;58477;48.072;11.970;2022-12-07T13:41:52;3.35;85.05
65207;SHT31;58477;48.072;11.970;2022-12-07T13:44:19;3.23;85.59
65207;SHT31;58477;48.072;11.970;2022-12-07T13:47:15;3.27;85.46
65207;SHT31;58477;48.072;11.970;2022-12-07T13:49:53;3.35;85.65
65207;SHT31;58477;48.072;11.970;2022-12-07T13:52:27;3.31;84.74
65207;SHT31;58477;48.072;11.970;2022-12-07T13:57:22;3.13;85.43
65207;SHT31;58477;48.072;11.970;2022-12-07T13:59:47;3.17;85.62
65207;SHT31;58477;48.072;11.970;2022-12-07T14:04:51;3.10;85.58
65207;SHT31;58477;48.072;11.970;2022-12-07T14:07:21;3.07;86.10
65207;SHT31;58477;48.072;11.970;2022-12-07T14:09:57;3.08;86.32
65207;SHT31;58477;48.072;11.970;2022-12-07T14:12:24;3.01;86.15
65207;SHT31;58477;48.072;11.970;2022-12-07T14:14:50;2.90;85.99
65207;SHT31;58477;48.072;11.970;2022-12-07T14:17:20;2.92;86.66
65207;SHT31;58477;48.072;11.970;2022-12-07T14:19:49;2.89;86.16
65207;SHT31;58477;48.072;11.970;2022-12-07T14:22:21;2.86;86.62
65207;SHT31;58477;48.072;11.970;2022-12-07T14:24:47;2.86;87.03
65207;SHT31;58477;48.072;11.970;2022-12-07T14:27:23;2.80;86.62
65207;SHT31;58477;48.072;11.970;2022-12-07T14:29:51;2.83;87.21
65207;SHT31;58477;48.072;11.970;2022-12-07T14:32:26;2.83;86.95
65207;SHT31;58477;48.072;11.970;2022-12-07T14:34:59;2.83;87.50
65207;SHT31;58477;48.072;11.970;2022-12-07T14:37:26;2.82;87.58
65207;SHT31;58477;48.072;11.970;2022-12-07T14:39:52;2.76;86.95
65207;SHT31;58477;48.072;11.970;2022-12-07T14:42:17;2.77;87.66
65207;SHT31;58477;48.072;11.970;2022-12-07T14:44:43;2.71;87.95
65207;SHT31;58477;48.072;11.970;2022-12-07T14:47:10;2.76;87.69
65207;SHT31;58477;48.072;11.970;2022-12-07T14:49:36;2.79;87.34
65207;SHT31;58477;48.072;11.970;2022-12-07T14:52:01;2.73;87.54
65207;SHT31;58477;48.072;11.970;2022-12-07T14:54:29;2.69;88.14
65207;SHT31;58477;48.072;11.970;2022-12-07T14:56:55;2.67;87.47
65207;SHT31;58477;48.072;11.970;2022-12-07T14:59:21;2.59;88.31
65207;SHT31;58477;48.072;11.970;2022-12-07T15:01:46;2.53;88.02
65207;SHT31;58477;48.072;11.970;2022-12-07T15:04:12;2.41;88.27
65207;SHT31;58477;48.072;11.970;2022-12-07T15:06:38;2.33;88.38
65207;SHT31;58477;48.072;11.970;2022-12-07T15:09:03;2.31;88.54
65207;SHT31;58477;48.072;11.970;2022-12-07T15:11:29;2.28;88.45
65207;SHT31;58477;48.072;11.970;2022-12-07T15:13:55;2.22;88.53
65207;SHT31;58477;48.072;11.970;2022-12-07T15:16:33;2.11;88.96
65207;SHT31;58477;48.072;11.970;2022-12-07T15:18:58;2.07;89.33
65207;SHT31;58477;48.072;11.970;2022-12-07T15:21:23;1.97;89.30
65207;SHT31;58477;48.072;11.970;2022-12-07T15:23:49;1.94;89.47
65207;SHT31;58477;48.072;11.970;2022-12-07T15:26:15;1.81;89.88
65207;SHT31;58477;48.072;11.970;2022-12-07T15:28:41;1.68;90.07
65207;SHT31;58477;48.072;11.970;2022-12-07T15:31:16;1.63;90.61
65207;SHT31;58477;48.072;11.970;2022-12-07T15:33:43;1.53;90.68
65207;SHT31;58477;48.072;11.970;2022-12-07T15:36:20;1.39;90.89
65207;SHT31;58477;48.072;11.970;2022-12-07T15:38:46;1.23;91.32
65207;SHT31;58477;48.072;11.970;2022-12-07T15:41:12;1.09;91.90
65207;SHT31;58477;48.072;11.970;2022-12-07T15:43:38;1.07;92.46
65207;SHT31;58477;48.072;11.970;2022-12-07T15:46:22;1.00;92.35
65207;SHT31;58477;48.072;11.970;2022-12-07T15:48:47;0.83;92.24
65207;SHT31;58477;48.072;11.970;2022-12-07T15:51:13;0.58;92.06
65207;SHT31;58477;48.072;11.970;2022-12-07T15:53:38;0.40;92.13
65207;SHT31;58477;48.072;11.970;2022-12-07T15:56:08;0.21;92.39
65207;SHT31;58477;48.072;11.970;2022-12-07T15:58:34;0.10;93.13
65207;SHT31;58477;48.072;11.970;2022-12-07T16:00:59;-0.02;93.58
65207;SHT31;58477;48.072;11.970;2022-12-07T16:03:27;-0.05;94.99
65207;SHT31;58477;48.072;11.970;2022-12-07T16:05:52;-0.11;94.09
65207;SHT31;58477;48.072;11.970;2022-12-07T16:08:18;-0.05;95.01
65207;SHT31;58477;48.072;11.970;2022-12-07T16:10:44;0.11;95.04
65207;SHT31;58477;48.072;11.970;2022-12-07T16:13:10;0.15;95.54
65207;SHT31;58477;48.072;11.970;2022-12-07T16:15:42;0.24;94.92
65207;SHT31;58477;48.072;11.970;2022-12-07T16:18:08;0.31;94.90
65207;SHT31;58477;48.072;11.970;2022-12-07T16:20:34;0.13;94.96
65207;SHT31;58477;48.072;11.970;2022-12-07T16:22:59;0.10;94.98
65207;SHT31;58477;48.072;11.970;2022-12-07T16:25:25;0.04;95.21
65207;SHT31;58477;48.072;11.970;2022-12-07T16:27:52;0.05;95.78
65207;SHT31;58477;48.072;11.970;2022-12-07T16:30:18;0.07;95.85
65207;SHT31;58477;48.072;11.970;2022-12-07T16:32:43;0.07;95.64
65207;SHT31;58477;48.072;11.970;2022-12-07T16:35:10;-0.05;95.95
65207;SHT31;58477;48.072;11.970;2022-12-07T16:37:35;-0.07;96.34
65207;SHT31;58477;48.072;11.970;2022-12-07T16:40:03;-0.07;96.18
65207;SHT31;58477;48.072;11.970;2022-12-07T16:42:35;-0.06;95.92
65207;SHT31;58477;48.072;11.970;2022-12-07T16:45:01;-0.06;96.08
65207;SHT31;58477;48.072;11.970;2022-12-07T16:47:27;-0.07;95.65
65207;SHT31;58477;48.072;11.970;2022-12-07T16:49:52;-0.29;94.46
65207;SHT31;58477;48.072;11.970;2022-12-07T16:52:19;-0.40;95.19
65207;SHT31;58477;48.072;11.970;2022-12-07T16:54:46;-0.17;96.50
65207;SHT31;58477;48.072;11.970;2022-12-07T16:57:12;-0.05;96.44
65207;SHT31;58477;48.072;11.970;2022-12-07T16:59:38;-0.05;96.46
65207;SHT31;58477;48.072;11.970;2022-12-07T17:02:03;0.00;96.52
65207;SHT31;58477;48.072;11.970;2022-12-07T17:04:29;0.10;96.29
65207;SHT31;58477;48.072;11.970;2022-12-07T17:06:55;0.10;96.03
65207;SHT31;58477;48.072;11.970;2022-12-07T17:09:20;0.05;95.82
65207;SHT31;58477;48.072;11.970;2022-12-07T17:11:45;0.11;95.62
65207;SHT31;58477;48.072;11.970;2022-12-07T17:14:11;0.11;96.14
65207;SHT31;58477;48.072;11.970;2022-12-07T17:16:55;0.13;96.00
65207;SHT31;58477;48.072;11.970;2022-12-07T17:19:21;0.18;95.66
65207;SHT31;58477;48.072;11.970;2022-12-07T17:21:47;0.17;95.45
65207;SHT31;58477;48.072;11.970;2022-12-07T17:24:16;0.18;95.71
65207;SHT31;58477;48.072;11.970;2022-12-07T17:26:43;0.08;95.67
65207;SHT31;58477;48.072;11.970;2022-12-07T17:29:11;0.08;95.56
65207;SHT31;58477;48.072;11.970;2022-12-07T17:31:36;0.03;95.48
65207;SHT31;58477;48.072;11.970;2022-12-07T17:34:02;0.05;95.71
65207;SHT31;58477;48.072;11.970;2022-12-07T17:36:30;0.17;95.99
65207;SHT31;58477;48.072;11.970;2022-12-07T17:38:56;0.11;95.82
65207;SHT31;58477;48.072;11.970;2022-12-07T17:41:25;0.15;96.08
65207;SHT31;58477;48.072;11.970;2022-12-07T17:44:15;0.25;95.92
65207;SHT31;58477;48.072;11.970;2022-12-07T17:46:40;0.25;95.44
65207;SHT31;58477;48.072;11.970;2022-12-07T17:49:06;0.21;95.33
65207;SHT31;58477;48.072;11.970;2022-12-07T17:51:32;0.07;95.72
65207;SHT31;58477;48.072;11.970;2022-12-07T17:54:16;0.28;95.66
65207;SHT31;58477;48.072;11.970;2022-12-07T17:56:43;0.31;95.54
65207;SHT31;58477;48.072;11.970;2022-12-07T17:59:08;0.31;95.53
65207;SHT31;58477;48.072;11.970;2022-12-07T18:01:34;0.29;95.29